sensor_id;sensor_type;location;lat;lon;timestamp;pressure;altitude;pressure_sealevel;temperature;humidity
71621;BME280;59471;42.254;23.102;2023-06-14T00:00:18;95603.28;;;17.36;91.69
71621;BME280;59471;42.254;23.102;2023-06-14T00:02:45;95606.72;;;17.25;92.68
71621;BME280;59471;42.254;23.102;2023-06-14T00:05:10;95600.06;;;17.34;92.63
71621;BME280;59471;42.254;23.102;2023-06-14T00:07:41;95607.09;;;17.41;91.53
71621;BME280;59471;42.254;23.102;2023-06-14T00:10:11;95604.63;;;17.27;91.77
71621;BME280;59471;42.254;23.102;2023-06-14T00:12:38;95601.06;;;17.22;93.38
71621;BME280;59471;42.254;23.102;2023-06-14T00:15:05;95602.34;;;17.31;93.56
71621;BME280;59471;42.254;23.102;2023-06-14T00:17:31;95605.63;;;17.45;93.35
71621;BME280;59471;42.254;23.102;2023-06-14T00:19:59;95600.31;;;17.45;94.03
71621;BME280;59471;42.254;23.102;2023-06-14T00:22:25;95605.25;;;17.41;93.73
71621;BME280;59471;42.254;23.102;2023-06-14T00:24:53;95590.13;;;17.30;94.86
71621;BME280;59471;42.254;23.102;2023-06-14T00:27:19;95589.56;;;17.28;95.19
71621;BME280;59471;42.254;23.102;2023-06-14T00:29:44;95587.41;;;17.36;94.96
71621;BME280;59471;42.254;23.102;2023-06-14T00:32:10;95580.94;;;17.32;94.88
71621;BME280;59471;42.254;23.102;2023-06-14T00:34:36;95576.88;;;17.18;95.44
71621;BME280;59471;42.254;23.102;2023-06-14T00:37:01;95575.13;;;17.12;95.52
71621;BME280;59471;42.254;23.102;2023-06-14T00:39:27;95567.31;;;17.17;95.11
71621;BME280;59471;42.254;23.102;2023-06-14T00:41:52;95574.59;;;17.22;94.78
71621;BME280;59471;42.254;23.102;2023-06-14T00:44:18;95571.91;;;17.10;95.63
71621;BME280;59471;42.254;23.102;2023-06-14T00:46:47;95571.63;;;17.30;91.94
71621;BME280;59471;42.254;23.102;2023-06-14T00:49:16;95566.56;;;17.28;91.82
71621;BME280;59471;42.254;23.102;2023-06-14T00:51:42;95567.84;;;17.37;89.76
71621;BME280;59471;42.254;23.102;2023-06-14T00:54:08;95558.72;;;17.22;91.21
71621;BME280;59471;42.254;23.102;2023-06-14T00:56:37;95552.59;;;17.21;90.87
71621;BME280;59471;42.254;23.102;2023-06-14T00:59:03;95555.13;;;17.16;92.48
71621;BME280;59471;42.254;23.102;2023-06-14T01:01:30;95555.31;;;17.03;93.52
71621;BME280;59471;42.254;23.102;2023-06-14T01:03:58;95549.25;;;17.14;93.27
71621;BME280;59471;42.254;23.102;2023-06-14T01:06:44;95551.78;;;17.09;93.52
71621;BME280;59471;42.254;23.102;2023-06-14T01:09:27;95549.56;;;17.06;93.90
71621;BME280;59471;42.254;23.102;2023-06-14T01:12:07;95543.03;;;16.78;95.63
71621;BME280;59471;42.254;23.102;2023-06-14T01:14:39;95545.56;;;16.66;96.92
71621;BME280;59471;42.254;23.102;2023-06-14T01:17:07;95546.53;;;16.72;96.12
71621;BME280;59471;42.254;23.102;2023-06-14T01:19:41;95543.81;;;16.79;96.23
71621;BME280;59471;42.254;23.102;2023-06-14T01:22:10;95541.41;;;16.77;96.25
71621;BME280;59471;42.254;23.102;2023-06-14T01:24:36;95534.63;;;16.81;95.87
71621;BME280;59471;42.254;23.102;2023-06-14T01:27:05;95525.56;;;16.77;95.84
71621;BME280;59471;42.254;23.102;2023-06-14T01:29:32;95534.84;;;16.80;96.18
71621;BME280;59471;42.254;23.102;2023-06-14T01:31:59;95538.59;;;16.72;96.31
71621;BME280;59471;42.254;23.102;2023-06-14T01:34:26;95542.56;;;16.63;96.58
71621;BME280;59471;42.254;23.102;2023-06-14T01:36:52;95549.97;;;16.54;97.93
71621;BME280;59471;42.254;23.102;2023-06-14T01:39:21;95537.28;;;16.44;98.28
71621;BME280;59471;42.254;23.102;2023-06-14T01:41:48;95540.38;;;16.60;98.58
71621;BME280;59471;42.254;23.102;2023-06-14T01:44:16;95537.13;;;16.58;98.28
71621;BME280;59471;42.254;23.102;2023-06-14T01:46:43;95545.66;;;16.60;97.96
71621;BME280;59471;42.254;23.102;2023-06-14T01:49:11;95548.91;;;16.62;97.70
71621;BME280;59471;42.254;23.102;2023-06-14T01:51:36;95559.91;;;16.59;97.24
71621;BME280;59471;42.254;23.102;2023-06-14T01:54:02;95556.22;;;16.60;97.58
71621;BME280;59471;42.254;23.102;2023-06-14T01:56:28;95559.03;;;16.65;97.23
71621;BME280;59471;42.254;23.102;2023-06-14T01:58:53;95557.47;;;16.57;97.41
71621;BME280;59471;42.254;23.102;2023-06-14T02:01:19;95556.81;;;16.62;96.75
71621;BME280;59471;42.254;23.102;2023-06-14T02:03:47;95562.13;;;16.62;96.66
71621;BME280;59471;42.254;23.102;2023-06-14T02:06:14;95563.13;;;16.61;96.85
71621;BME280;59471;42.254;23.102;2023-06-14T02:08:41;95576.78;;;16.58;96.64
71621;BME280;59471;42.254;23.102;2023-06-14T02:11:08;95567.75;;;16.47;97.88
71621;BME280;59471;42.254;23.102;2023-06-14T02:13:33;95571.38;;;16.53;97.59
71621;BME280;59471;42.254;23.102;2023-06-14T02:16:00;95578.84;;;16.56;97.57
71621;BME280;59471;42.254;23.102;2023-06-14T02:18:26;95581.13;;;16.52;97.78
71621;BME280;59471;42.254;23.102;2023-06-14T02:20:52;95577.06;;;16.13;99.20
71621;BME280;59471;42.254;23.102;2023-06-14T02:23:18;95576.34;;;16.24;98.92
71621;BME280;59471;42.254;23.102;2023-06-14T02:25:43;95580.09;;;16.35;98.50
71621;BME280;59471;42.254;23.102;2023-06-14T02:28:10;95580.03;;;16.41;98.05
71621;BME280;59471;42.254;23.102;2023-06-14T02:30:36;95580.91;;;16.35;98.14
71621;BME280;59471;42.254;23.102;2023-06-14T02:33:01;95589.34;;;16.44;97.38
71621;BME280;59471;42.254;23.102;2023-06-14T02:35:27;95588.13;;;16.65;96.00
71621;BME280;59471;42.254;23.102;2023-06-14T02:37:53;95589.28;;;16.51;96.55
71621;BME280;59471;42.254;23.102;2023-06-14T02:40:19;95581.50;;;16.56;96.57
71621;BME280;59471;42.254;23.102;2023-06-14T02:42:45;95579.94;;;16.48;96.92
71621;BME280;59471;42.254;23.102;2023-06-14T02:45:11;95581.59;;;16.49;96.44
71621;BME280;59471;42.254;23.102;2023-06-14T02:47:36;95587.66;;;16.50;96.04
71621;BME280;59471;42.254;23.102;2023-06-14T02:50:02;95583.53;;;16.17;98.33
71621;BME280;59471;42.254;23.102;2023-06-14T02:52:28;95587.66;;;16.31;97.95
71621;BME280;59471;42.254;23.102;2023-06-14T02:54:54;95584.66;;;16.46;97.56
71621;BME280;59471;42.254;23.102;2023-06-14T02:57:21;95584.13;;;16.37;97.90
71621;BME280;59471;42.254;23.102;2023-06-14T02:59:47;95582.09;;;16.39;98.02
71621;BME280;59471;42.254;23.102;2023-06-14T03:02:13;95596.31;;;16.38;97.76
71621;BME280;59471;42.254;23.102;2023-06-14T03:04:38;95600.94;;;16.25;98.21
71621;BME280;59471;42.254;23.102;2023-06-14T03:07:04;95598.19;;;16.13;98.56
71621;BME280;59471;42.254;23.102;2023-06-14T03:09:37;95607.19;;;16.49;97.31
71621;BME280;59471;42.254;23.102;2023-06-14T03:12:04;95611.16;;;16.39;97.21
71621;BME280;59471;42.254;23.102;2023-06-14T03:14:32;95610.84;;;16.29;96.59
71621;BME280;59471;42.254;23.102;2023-06-14T03:16:58;95621.66;;;16.03;98.25
71621;BME280;59471;42.254;23.102;2023-06-14T03:19:24;95619.75;;;16.10;98.88
71621;BME280;59471;42.254;23.102;2023-06-14T03:21:51;95624.50;;;16.26;98.67
71621;BME280;59471;42.254;23.102;2023-06-14T03:24:17;95619.53;;;16.36;97.83
71621;BME280;59471;42.254;23.102;2023-06-14T03:26:43;95617.59;;;16.25;97.18
71621;BME280;59471;42.254;23.102;2023-06-14T03:29:08;95620.47;;;16.42;96.75
71621;BME280;59471;42.254;23.102;2023-06-14T03:31:34;95619.53;;;16.36;96.82
71621;BME280;59471;42.254;23.102;2023-06-14T03:34:01;95629.16;;;16.49;96.86
71621;BME280;59471;42.254;23.102;2023-06-14T03:36:27;95623.88;;;16.49;95.83
71621;BME280;59471;42.254;23.102;2023-06-14T03:38:53;95624.81;;;16.55;96.68
71621;BME280;59471;42.254;23.102;2023-06-14T03:41:20;95626.44;;;16.56;97.12
71621;BME280;59471;42.254;23.102;2023-06-14T03:43:46;95624.97;;;16.60;97.09
71621;BME280;59471;42.254;23.102;2023-06-14T03:46:11;95625.69;;;16.67;96.74
71621;BME280;59471;42.254;23.102;2023-06-14T03:48:37;95624.69;;;16.50;97.46
71621;BME280;59471;42.254;23.102;2023-06-14T03:51:04;95624.44;;;16.51;97.86
71621;BME280;59471;42.254;23.102;2023-06-14T03:53:30;95616.84;;;16.61;97.80
71621;BME280;59471;42.254;23.102;2023-06-14T03:55:56;95617.28;;;16.58;97.08
71621;BME280;59471;42.254;23.102;2023-06-14T03:58:22;95617.19;;;16.47;97.86
71621;BME280;59471;42.254;23.102;2023-06-14T04:00:48;95626.31;;;16.87;94.79
71621;BME280;59471;42.254;23.102;2023-06-14T04:03:13;95628.66;;;16.96;93.51
71621;BME280;59471;42.254;23.102;2023-06-14T04:05:40;95623.44;;;16.89;93.84
71621;BME280;59471;42.254;23.102;2023-06-14T04:08:08;95625.56;;;16.62;95.47
71621;BME280;59471;42.254;23.102;2023-06-14T04:10:40;95622.59;;;16.52;97.75
71621;BME280;59471;42.254;23.102;2023-06-14T04:13:06;95622.25;;;16.48;97.63
71621;BME280;59471;42.254;23.102;2023-06-14T04:15:32;95617.34;;;16.88;94.46
71621;BME280;59471;42.254;23.102;2023-06-14T04:17:58;95622.56;;;16.95;93.41
71621;BME280;59471;42.254;23.102;2023-06-14T04:20:24;95610.53;;;16.81;94.30
71621;BME280;59471;42.254;23.102;2023-06-14T04:22:50;95617.00;;;16.85;94.52
71621;BME280;59471;42.254;23.102;2023-06-14T04:25:18;95620.16;;;16.94;94.35
71621;BME280;59471;42.254;23.102;2023-06-14T04:27:43;95622.34;;;16.97;94.03
71621;BME280;59471;42.254;23.102;2023-06-14T04:30:09;95614.41;;;16.97;93.96
71621;BME280;59471;42.254;23.102;2023-06-14T04:32:35;95622.63;;;17.07;93.15
71621;BME280;59471;42.254;23.102;2023-06-14T04:35:07;95622.47;;;17.02;93.54
71621;BME280;59471;42.254;23.102;2023-06-14T04:37:33;95631.41;;;17.19;92.25
71621;BME280;59471;42.254;23.102;2023-06-14T04:40:00;95642.75;;;17.08;92.99
71621;BME280;59471;42.254;23.102;2023-06-14T04:42:26;95632.53;;;17.11;93.18
71621;BME280;59471;42.254;23.102;2023-06-14T04:44:56;95634.59;;;17.09;92.72
71621;BME280;59471;42.254;23.102;2023-06-14T04:47:23;95640.97;;;17.20;94.19
71621;BME280;59471;42.254;23.102;2023-06-14T04:49:50;95649.13;;;17.49;92.52
71621;BME280;59471;42.254;23.102;2023-06-14T04:52:19;95645.91;;;17.47;90.18
71621;BME280;59471;42.254;23.102;2023-06-14T04:54:46;95645.97;;;17.40;90.55
71621;BME280;59471;42.254;23.102;2023-06-14T04:57:12;95642.94;;;17.55;90.92
71621;BME280;59471;42.254;23.102;2023-06-14T04:59:43;95647.06;;;17.81;87.90
71621;BME280;59471;42.254;23.102;2023-06-14T05:02:10;95646.16;;;17.87;87.96
71621;BME280;59471;42.254;23.102;2023-06-14T05:04:37;95656.75;;;17.87;89.26
71621;BME280;59471;42.254;23.102;2023-06-14T05:07:06;95652.72;;;17.96;88.94
71621;BME280;59471;42.254;23.102;2023-06-14T05:09:33;95660.03;;;18.13;87.81
71621;BME280;59471;42.254;23.102;2023-06-14T05:11:59;95660.94;;;18.18;87.21
71621;BME280;59471;42.254;23.102;2023-06-14T05:14:25;95663.94;;;18.10;87.86
71621;BME280;59471;42.254;23.102;2023-06-14T05:16:52;95663.59;;;18.18;87.62
71621;BME280;59471;42.254;23.102;2023-06-14T05:19:18;95667.97;;;18.24;87.94
71621;BME280;59471;42.254;23.102;2023-06-14T05:21:46;95672.81;;;18.27;87.86
71621;BME280;59471;42.254;23.102;2023-06-14T05:24:13;95678.13;;;18.27;86.86
71621;BME280;59471;42.254;23.102;2023-06-14T05:26:39;95679.84;;;18.10;88.44
71621;BME280;59471;42.254;23.102;2023-06-14T05:29:05;95683.47;;;17.86;89.53
71621;BME280;59471;42.254;23.102;2023-06-14T05:31:30;95686.25;;;17.91;89.20
71621;BME280;59471;42.254;23.102;2023-06-14T05:33:56;95692.84;;;17.70;90.72
71621;BME280;59471;42.254;23.102;2023-06-14T05:36:21;95700.09;;;17.74;90.93
71621;BME280;59471;42.254;23.102;2023-06-14T05:38:47;95682.16;;;17.46;92.01
71621;BME280;59471;42.254;23.102;2023-06-14T05:41:13;95679.91;;;17.31;94.23
71621;BME280;59471;42.254;23.102;2023-06-14T05:43:39;95684.16;;;17.32;95.14
71621;BME280;59471;42.254;23.102;2023-06-14T05:46:04;95691.84;;;17.52;94.17
71621;BME280;59471;42.254;23.102;2023-06-14T05:48:30;95686.81;;;17.93;91.76
71621;BME280;59471;42.254;23.102;2023-06-14T05:50:56;95690.91;;;18.07;90.30
71621;BME280;59471;42.254;23.102;2023-06-14T05:53:22;95688.03;;;18.20;90.44
71621;BME280;59471;42.254;23.102;2023-06-14T05:55:49;95696.91;;;18.14;89.48
71621;BME280;59471;42.254;23.102;2023-06-14T05:58:17;95695.19;;;18.32;88.85
71621;BME280;59471;42.254;23.102;2023-06-14T06:00:42;95695.88;;;18.39;88.53
71621;BME280;59471;42.254;23.102;2023-06-14T06:03:08;95694.38;;;18.43;88.44
71621;BME280;59471;42.254;23.102;2023-06-14T06:05:34;95697.03;;;18.43;88.19
71621;BME280;59471;42.254;23.102;2023-06-14T06:08:01;95695.88;;;18.62;88.20
71621;BME280;59471;42.254;23.102;2023-06-14T06:10:26;95703.75;;;18.81;89.52
71621;BME280;59471;42.254;23.102;2023-06-14T06:12:52;95699.38;;;18.74;87.14
71621;BME280;59471;42.254;23.102;2023-06-14T06:15:19;95709.41;;;18.84;88.95
71621;BME280;59471;42.254;23.102;2023-06-14T06:17:45;95696.59;;;18.93;88.01
71621;BME280;59471;42.254;23.102;2023-06-14T06:20:11;95701.03;;;19.16;86.20
71621;BME280;59471;42.254;23.102;2023-06-14T06:22:37;95704.63;;;19.10;86.13
71621;BME280;59471;42.254;23.102;2023-06-14T06:25:04;95706.91;;;19.30;84.89
71621;BME280;59471;42.254;23.102;2023-06-14T06:27:30;95700.66;;;19.36;82.75
71621;BME280;59471;42.254;23.102;2023-06-14T06:29:55;95707.84;;;19.64;82.41
71621;BME280;59471;42.254;23.102;2023-06-14T06:32:21;95713.75;;;19.83;81.09
71621;BME280;59471;42.254;23.102;2023-06-14T06:34:47;95712.25;;;19.87;78.59
71621;BME280;59471;42.254;23.102;2023-06-14T06:37:13;95709.97;;;19.79;79.82
71621;BME280;59471;42.254;23.102;2023-06-14T06:39:39;95714.53;;;19.66;79.45
71621;BME280;59471;42.254;23.102;2023-06-14T06:42:05;95713.97;;;19.64;80.25
71621;BME280;59471;42.254;23.102;2023-06-14T06:44:32;95707.75;;;19.47;82.57
71621;BME280;59471;42.254;23.102;2023-06-14T06:46:57;95711.19;;;19.59;80.68
71621;BME280;59471;42.254;23.102;2023-06-14T06:49:23;95712.41;;;19.80;81.12
71621;BME280;59471;42.254;23.102;2023-06-14T06:52:02;95718.50;;;20.09;79.21
71621;BME280;59471;42.254;23.102;2023-06-14T06:54:32;95704.06;;;20.39;78.59
71621;BME280;59471;42.254;23.102;2023-06-14T06:56:58;95704.72;;;20.46;79.11
71621;BME280;59471;42.254;23.102;2023-06-14T06:59:24;95701.38;;;20.90;77.00
71621;BME280;59471;42.254;23.102;2023-06-14T07:01:50;95705.13;;;21.11;79.37
71621;BME280;59471;42.254;23.102;2023-06-14T07:04:15;95696.56;;;21.09;77.24
71621;BME280;59471;42.254;23.102;2023-06-14T07:06:42;95701.56;;;21.22;77.91
71621;BME280;59471;42.254;23.102;2023-06-14T07:09:07;95699.91;;;21.38;75.47
71621;BME280;59471;42.254;23.102;2023-06-14T07:11:40;95694.97;;;21.29;75.83
71621;BME280;59471;42.254;23.102;2023-06-14T07:14:07;95695.88;;;21.35;74.36
71621;BME280;59471;42.254;23.102;2023-06-14T07:16:33;95689.56;;;21.02;74.55
71621;BME280;59471;42.254;23.102;2023-06-14T07:18:59;95700.69;;;21.38;74.47
71621;BME280;59471;42.254;23.102;2023-06-14T07:21:25;95694.06;;;21.19;72.98
71621;BME280;59471;42.254;23.102;2023-06-14T07:23:52;95682.56;;;20.96;74.91
71621;BME280;59471;42.254;23.102;2023-06-14T07:26:18;95695.03;;;20.91;73.88
71621;BME280;59471;42.254;23.102;2023-06-14T07:28:44;95687.66;;;20.98;75.58
71621;BME280;59471;42.254;23.102;2023-06-14T07:31:13;95688.22;;;21.00;76.14
71621;BME280;59471;42.254;23.102;2023-06-14T07:33:41;95679.97;;;21.01;76.47
71621;BME280;59471;42.254;23.102;2023-06-14T07:36:07;95676.41;;;21.13;75.71
71621;BME280;59471;42.254;23.102;2023-06-14T07:38:33;95686.50;;;21.55;75.11
71621;BME280;59471;42.254;23.102;2023-06-14T07:40:59;95693.88;;;21.47;73.54
71621;BME280;59471;42.254;23.102;2023-06-14T07:43:25;95698.72;;;21.50;74.07
71621;BME280;59471;42.254;23.102;2023-06-14T07:45:51;95694.00;;;21.85;71.62
71621;BME280;59471;42.254;23.102;2023-06-14T07:48:16;95697.22;;;21.87;69.06
71621;BME280;59471;42.254;23.102;2023-06-14T07:50:42;95703.03;;;21.84;68.91
71621;BME280;59471;42.254;23.102;2023-06-14T07:53:08;95707.56;;;21.83;70.70
71621;BME280;59471;42.254;23.102;2023-06-14T07:55:33;95709.09;;;21.74;69.58
71621;BME280;59471;42.254;23.102;2023-06-14T07:58:02;95705.06;;;21.49;71.41
71621;BME280;59471;42.254;23.102;2023-06-14T08:00:28;95715.88;;;21.38;71.42
71621;BME280;59471;42.254;23.102;2023-06-14T08:02:54;95714.88;;;21.66;72.53
71621;BME280;59471;42.254;23.102;2023-06-14T08:05:24;95725.38;;;22.05;69.91
71621;BME280;59471;42.254;23.102;2023-06-14T08:07:51;95723.88;;;22.14;69.27
71621;BME280;59471;42.254;23.102;2023-06-14T08:10:17;95728.59;;;22.07;67.12
71621;BME280;59471;42.254;23.102;2023-06-14T08:12:42;95729.41;;;22.34;67.34
71621;BME280;59471;42.254;23.102;2023-06-14T08:15:08;95724.44;;;22.85;68.44
71621;BME280;59471;42.254;23.102;2023-06-14T08:17:35;95726.97;;;23.55;66.73
71621;BME280;59471;42.254;23.102;2023-06-14T08:20:01;95735.53;;;23.62;66.12
71621;BME280;59471;42.254;23.102;2023-06-14T08:22:29;95724.75;;;23.42;63.25
71621;BME280;59471;42.254;23.102;2023-06-14T08:24:59;95729.16;;;23.10;64.64
71621;BME280;59471;42.254;23.102;2023-06-14T08:27:25;95723.53;;;23.07;64.10
71621;BME280;59471;42.254;23.102;2023-06-14T08:29:50;95724.53;;;22.96;65.12
71621;BME280;59471;42.254;23.102;2023-06-14T08:32:16;95719.91;;;22.86;66.45
71621;BME280;59471;42.254;23.102;2023-06-14T08:34:42;95716.91;;;22.77;64.24
71621;BME280;59471;42.254;23.102;2023-06-14T08:37:07;95714.94;;;23.00;66.38
71621;BME280;59471;42.254;23.102;2023-06-14T08:39:33;95707.13;;;22.93;66.23
71621;BME280;59471;42.254;23.102;2023-06-14T08:42:01;95714.25;;;23.20;66.29
71621;BME280;59471;42.254;23.102;2023-06-14T08:44:28;95707.56;;;23.17;66.39
71621;BME280;59471;42.254;23.102;2023-06-14T08:46:56;95709.25;;;22.49;66.00
71621;BME280;59471;42.254;23.102;2023-06-14T08:49:24;95707.72;;;21.98;65.98
71621;BME280;59471;42.254;23.102;2023-06-14T08:51:55;95694.38;;;22.26;67.38
71621;BME280;59471;42.254;23.102;2023-06-14T08:54:28;95701.06;;;22.60;64.73
71621;BME280;59471;42.254;23.102;2023-06-14T08:56:56;95698.56;;;22.91;63.03
71621;BME280;59471;42.254;23.102;2023-06-14T08:59:28;95686.72;;;23.19;62.01
71621;BME280;59471;42.254;23.102;2023-06-14T09:01:54;95679.16;;;23.01;63.02
71621;BME280;59471;42.254;23.102;2023-06-14T09:04:23;95663.78;;;23.28;62.08
71621;BME280;59471;42.254;23.102;2023-06-14T09:06:55;95676.91;;;23.35;61.64
71621;BME280;59471;42.254;23.102;2023-06-14T09:09:21;95672.94;;;23.48;61.84
71621;BME280;59471;42.254;23.102;2023-06-14T09:11:51;95666.22;;;23.45;66.01
71621;BME280;59471;42.254;23.102;2023-06-14T09:14:21;95666.53;;;23.54;63.24
71621;BME280;59471;42.254;23.102;2023-06-14T09:16:52;95672.28;;;23.93;62.98
71621;BME280;59471;42.254;23.102;2023-06-14T09:19:23;95666.63;;;23.74;62.36
71621;BME280;59471;42.254;23.102;2023-06-14T09:21:49;95665.03;;;23.94;63.55
71621;BME280;59471;42.254;23.102;2023-06-14T09:24:15;95656.13;;;23.57;61.43
71621;BME280;59471;42.254;23.102;2023-06-14T09:26:41;95655.94;;;23.74;62.48
71621;BME280;59471;42.254;23.102;2023-06-14T09:29:06;95652.47;;;24.15;60.49
71621;BME280;59471;42.254;23.102;2023-06-14T09:31:32;95651.94;;;24.13;58.53
71621;BME280;59471;42.254;23.102;2023-06-14T09:33:58;95649.53;;;24.11;56.50
71621;BME280;59471;42.254;23.102;2023-06-14T09:36:27;95646.84;;;23.75;57.84
71621;BME280;59471;42.254;23.102;2023-06-14T09:38:58;95650.06;;;24.08;59.34
71621;BME280;59471;42.254;23.102;2023-06-14T09:41:36;95650.59;;;24.25;56.80
71621;BME280;59471;42.254;23.102;2023-06-14T09:44:05;95645.50;;;24.55;57.95
71621;BME280;59471;42.254;23.102;2023-06-14T09:46:32;95639.88;;;24.66;56.59
71621;BME280;59471;42.254;23.102;2023-06-14T09:48:59;95635.59;;;24.60;55.34
71621;BME280;59471;42.254;23.102;2023-06-14T09:51:25;95628.13;;;24.42;56.17
71621;BME280;59471;42.254;23.102;2023-06-14T09:53:52;95621.66;;;24.58;53.59
71621;BME280;59471;42.254;23.102;2023-06-14T09:56:23;95628.13;;;24.32;57.19
71621;BME280;59471;42.254;23.102;2023-06-14T09:58:54;95625.97;;;24.34;55.67
71621;BME280;59471;42.254;23.102;2023-06-14T10:01:23;95625.38;;;24.78;55.63
71621;BME280;59471;42.254;23.102;2023-06-14T10:04:00;95620.53;;;24.85;55.38
71621;BME280;59471;42.254;23.102;2023-06-14T10:06:31;95617.28;;;24.98;51.90
71621;BME280;59471;42.254;23.102;2023-06-14T10:08:59;95608.28;;;24.63;53.98
71621;BME280;59471;42.254;23.102;2023-06-14T10:11:26;95601.91;;;24.08;54.86
71621;BME280;59471;42.254;23.102;2023-06-14T10:13:53;95601.38;;;24.32;53.47
71621;BME280;59471;42.254;23.102;2023-06-14T10:16:24;95603.47;;;24.60;52.60
71621;BME280;59471;42.254;23.102;2023-06-14T10:19:15;95600.16;;;24.89;51.37
71621;BME280;59471;42.254;23.102;2023-06-14T10:22:02;95600.47;;;24.77;52.07
71621;BME280;59471;42.254;23.102;2023-06-14T10:24:42;95597.06;;;24.46;55.76
71621;BME280;59471;42.254;23.102;2023-06-14T10:27:09;95598.31;;;24.79;51.74
71621;BME280;59471;42.254;23.102;2023-06-14T10:32:18;95596.53;;;24.39;53.49
71621;BME280;59471;42.254;23.102;2023-06-14T10:34:44;95594.91;;;24.58;51.36
71621;BME280;59471;42.254;23.102;2023-06-14T10:37:13;95586.97;;;25.13;52.82
71621;BME280;59471;42.254;23.102;2023-06-14T10:39:41;95591.78;;;25.60;49.70
71621;BME280;59471;42.254;23.102;2023-06-14T10:42:09;95588.66;;;25.48;52.62
71621;BME280;59471;42.254;23.102;2023-06-14T10:44:50;95588.88;;;25.96;53.09
71621;BME280;59471;42.254;23.102;2023-06-14T10:47:30;95585.63;;;25.99;48.20
71621;BME280;59471;42.254;23.102;2023-06-14T10:50:05;95579.34;;;24.76;51.34
71621;BME280;59471;42.254;23.102;2023-06-14T10:52:38;95581.91;;;25.01;52.39
71621;BME280;59471;42.254;23.102;2023-06-14T10:55:09;95581.47;;;26.12;54.39
71621;BME280;59471;42.254;23.102;2023-06-14T10:57:36;95584.34;;;26.55;53.89
71621;BME280;59471;42.254;23.102;2023-06-14T11:00:06;95588.38;;;26.52;50.19
71621;BME280;59471;42.254;23.102;2023-06-14T11:05:24;95592.28;;;26.36;52.01
71621;BME280;59471;42.254;23.102;2023-06-14T11:10:44;95586.53;;;25.45;48.27
71621;BME280;59471;42.254;23.102;2023-06-14T11:13:12;95579.59;;;25.34;51.34
71621;BME280;59471;42.254;23.102;2023-06-14T11:15:44;95577.09;;;24.98;51.13
71621;BME280;59471;42.254;23.102;2023-06-14T11:18:11;95570.44;;;25.45;51.19
71621;BME280;59471;42.254;23.102;2023-06-14T11:20:39;95575.44;;;25.96;51.42
71621;BME280;59471;42.254;23.102;2023-06-14T11:23:05;95567.69;;;25.55;47.98
71621;BME280;59471;42.254;23.102;2023-06-14T11:25:31;95572.38;;;25.74;53.70
71621;BME280;59471;42.254;23.102;2023-06-14T11:27:57;95554.44;;;26.03;52.11
71621;BME280;59471;42.254;23.102;2023-06-14T11:30:24;95562.31;;;25.55;49.43
71621;BME280;59471;42.254;23.102;2023-06-14T11:32:52;95551.16;;;26.11;52.14
71621;BME280;59471;42.254;23.102;2023-06-14T11:35:21;95548.44;;;26.17;51.85
71621;BME280;59471;42.254;23.102;2023-06-14T11:37:49;95542.75;;;26.47;53.48
71621;BME280;59471;42.254;23.102;2023-06-14T11:40:17;95542.03;;;27.09;52.36
71621;BME280;59471;42.254;23.102;2023-06-14T11:42:43;95540.91;;;27.15;49.79
71621;BME280;59471;42.254;23.102;2023-06-14T11:45:10;95540.91;;;26.19;50.49
71621;BME280;59471;42.254;23.102;2023-06-14T11:47:38;95525.34;;;26.16;51.73
71621;BME280;59471;42.254;23.102;2023-06-14T11:50:07;95525.38;;;25.47;52.28
71621;BME280;59471;42.254;23.102;2023-06-14T11:52:36;95524.72;;;25.26;53.59
71621;BME280;59471;42.254;23.102;2023-06-14T11:55:03;95520.91;;;25.72;55.02
71621;BME280;59471;42.254;23.102;2023-06-14T11:57:35;95528.09;;;25.42;53.71
71621;BME280;59471;42.254;23.102;2023-06-14T12:00:06;95524.91;;;25.74;52.76
71621;BME280;59471;42.254;23.102;2023-06-14T12:02:37;95521.09;;;25.80;51.58
71621;BME280;59471;42.254;23.102;2023-06-14T12:05:06;95517.03;;;25.88;51.24
71621;BME280;59471;42.254;23.102;2023-06-14T12:07:38;95526.34;;;25.61;52.56
71621;BME280;59471;42.254;23.102;2023-06-14T12:10:07;95510.72;;;24.85;52.96
71621;BME280;59471;42.254;23.102;2023-06-14T12:12:38;95513.84;;;25.02;52.41
71621;BME280;59471;42.254;23.102;2023-06-14T12:15:06;95515.06;;;26.23;54.46
71621;BME280;59471;42.254;23.102;2023-06-14T12:17:36;95509.47;;;26.91;52.57
71621;BME280;59471;42.254;23.102;2023-06-14T12:20:13;95499.16;;;27.55;52.40
71621;BME280;59471;42.254;23.102;2023-06-14T12:22:55;95499.63;;;27.43;50.38
71621;BME280;59471;42.254;23.102;2023-06-14T12:25:32;95510.06;;;27.07;51.36
71621;BME280;59471;42.254;23.102;2023-06-14T12:28:08;95516.53;;;26.39;52.29
71621;BME280;59471;42.254;23.102;2023-06-14T12:30:36;95507.94;;;25.84;53.69
71621;BME280;59471;42.254;23.102;2023-06-14T12:33:03;95514.88;;;25.16;53.19
71621;BME280;59471;42.254;23.102;2023-06-14T12:35:28;95508.66;;;25.60;55.62
71621;BME280;59471;42.254;23.102;2023-06-14T12:37:54;95513.94;;;25.71;55.27
71621;BME280;59471;42.254;23.102;2023-06-14T12:40:20;95521.34;;;25.84;56.35
71621;BME280;59471;42.254;23.102;2023-06-14T12:42:46;95520.34;;;25.75;56.71
71621;BME280;59471;42.254;23.102;2023-06-14T12:45:14;95509.94;;;26.02;57.03
71621;BME280;59471;42.254;23.102;2023-06-14T12:47:40;95506.22;;;26.51;54.88
71621;BME280;59471;42.254;23.102;2023-06-14T12:50:07;95494.84;;;26.06;55.82
71621;BME280;59471;42.254;23.102;2023-06-14T12:52:32;95502.75;;;26.46;54.30
71621;BME280;59471;42.254;23.102;2023-06-14T12:55:04;95493.72;;;26.12;53.93
71621;BME280;59471;42.254;23.102;2023-06-14T12:57:30;95493.66;;;26.42;55.48
71621;BME280;59471;42.254;23.102;2023-06-14T12:59:56;95494.41;;;26.47;53.74